Townline, New York
Current Conditions -  °F | °C
As of 1:54 AM on Saturday 25 Oct 2014 (Local Time) from KBUF Reporting Station
Overcast Overcast  
Wind Chill: 11°   Ceiling: 4100
Heat Index: 11°   Visibility: 7mi
Dew Point:   Wind: 7mph
Humidity: 86%   Direction: 210°SSW
Pressure: 29.91"   Gusts: NA
Location:  42.8931°N, 78.5076°W
Report Text: KBUF 250554Z 21006KT 7SM OVC041 11/08 A2991 RMK AO2 SLP131 T01060083 10122 20100 56011
Loading
Personal Weather Stations






























Interactive Weather Map
Tropical Storm Tracking
New forecast layout! Learn more

10-Day Weather Forecast

Advertisements
Track Severe Weather on mobile